KBLH/BLH METAR and TAF weather

Enter ICAO airport designator
Station Type Date Time Source
KBLH METAR 2022/11/27 08:52 UTC NOAA

KBLH 270852Z AUTO 31005KT 10SM CLR 08/M09 A3005 RMK AO2 SLP173 T00781089 53003 TSNO


Station Type Date Time Source
KBLH Decoded METAR 2022/11/27 08:52 UTC NOAA

BLYTHE AIRPORT, CA, United States (KBLH) 33-37N 114-43W 119M
Nov 27, 2022 - 03:52 AM EST / 2022.11.27 0852 UTC
Wind: from the NW (310 degrees) at 6 MPH (5 KT):0
Visibility: 10 mile(s):0
Sky conditions: clear
Temperature: 46.0 F (7.8 C)
Dew Point: 16.0 F (-8.9 C)
Relative Humidity: 29%
Pressure (altimeter): 30.05 in. Hg (1017 hPa)
Pressure tendency: 0.01 inches (0.3 hPa) higher than three hours ago
ob: KBLH 270852Z AUTO 31005KT 10SM CLR 08/M09 A3005 RMK AO2 SLP173 T00781089 53003 TSNO
cycle: 9

Station Type Date Time Source
KBLH TAF 2022/11/27 06:22 UTC NOAA

TAF KBLH 270520Z 2706/2806 VRB05KT P6SM FEW250

Example: see airport list